sensor_id;sensor_type;location;lat;lon;timestamp;pressure;altitude;pressure_sealevel;temperature;humidity
41040;BME280;48586;50.122;18.972;2023-02-26T00:00:48;97324.31;;;0.42;94.91
41040;BME280;48586;50.122;18.972;2023-02-26T00:02:53;97327.94;;;0.41;94.26
41040;BME280;48586;50.122;18.972;2023-02-26T00:05:02;97334.78;;;0.42;94.52
41040;BME280;48586;50.122;18.972;2023-02-26T00:07:07;97335.81;;;0.41;94.87
41040;BME280;48586;50.122;18.972;2023-02-26T00:09:11;97341.03;;;0.41;94.38
41040;BME280;48586;50.122;18.972;2023-02-26T00:11:15;97344.25;;;0.36;94.16
41040;BME280;48586;50.122;18.972;2023-02-26T00:13:22;97351.47;;;0.34;94.31
41040;BME280;48586;50.122;18.972;2023-02-26T00:15:27;97351.31;;;0.36;94.10
41040;BME280;48586;50.122;18.972;2023-02-26T00:17:39;97349.66;;;0.35;94.35
41040;BME280;48586;50.122;18.972;2023-02-26T00:19:50;97358.53;;;0.34;94.14
41040;BME280;48586;50.122;18.972;2023-02-26T00:21:58;97362.97;;;0.33;94.22
41040;BME280;48586;50.122;18.972;2023-02-26T00:24:07;97355.31;;;0.32;93.90
41040;BME280;48586;50.122;18.972;2023-02-26T00:26:12;97356.91;;;0.33;93.94
41040;BME280;48586;50.122;18.972;2023-02-26T00:28:17;97361.16;;;0.34;94.00
41040;BME280;48586;50.122;18.972;2023-02-26T00:30:23;97364.41;;;0.36;93.94
41040;BME280;48586;50.122;18.972;2023-02-26T00:32:28;97367.03;;;0.36;93.92
41040;BME280;48586;50.122;18.972;2023-02-26T00:34:34;97375.47;;;0.38;93.37
41040;BME280;48586;50.122;18.972;2023-02-26T00:36:47;97377.91;;;0.39;93.93
41040;BME280;48586;50.122;18.972;2023-02-26T00:39:34;97385.00;;;0.45;93.43
41040;BME280;48586;50.122;18.972;2023-02-26T00:41:45;97382.97;;;0.47;93.25
41040;BME280;48586;50.122;18.972;2023-02-26T00:43:51;97390.84;;;0.47;92.89
41040;BME280;48586;50.122;18.972;2023-02-26T00:46:04;97390.44;;;0.44;92.68
41040;BME280;48586;50.122;18.972;2023-02-26T00:48:39;97392.44;;;0.42;92.98
41040;BME280;48586;50.122;18.972;2023-02-26T00:50:59;97391.63;;;0.41;93.11
41040;BME280;48586;50.122;18.972;2023-02-26T00:53:19;97390.81;;;0.41;92.71
41040;BME280;48586;50.122;18.972;2023-02-26T00:55:31;97397.25;;;0.38;92.71
41040;BME280;48586;50.122;18.972;2023-02-26T00:57:36;97390.41;;;0.37;92.77
41040;BME280;48586;50.122;18.972;2023-02-26T00:59:43;97402.31;;;0.40;93.52
41040;BME280;48586;50.122;18.972;2023-02-26T01:01:48;97399.28;;;0.43;92.90
41040;BME280;48586;50.122;18.972;2023-02-26T01:03:55;97400.09;;;0.43;92.92
41040;BME280;48586;50.122;18.972;2023-02-26T01:06:01;97397.47;;;0.43;93.06
41040;BME280;48586;50.122;18.972;2023-02-26T01:08:12;97400.13;;;0.50;93.15
41040;BME280;48586;50.122;18.972;2023-02-26T01:10:23;97396.66;;;0.43;91.69
41040;BME280;48586;50.122;18.972;2023-02-26T01:12:32;97401.72;;;0.44;92.25
41040;BME280;48586;50.122;18.972;2023-02-26T01:14:39;97390.84;;;0.47;92.38
41040;BME280;48586;50.122;18.972;2023-02-26T01:16:52;97390.44;;;0.44;91.36
41040;BME280;48586;50.122;18.972;2023-02-26T01:19:19;97386.53;;;0.33;91.80
41040;BME280;48586;50.122;18.972;2023-02-26T01:21:39;97390.78;;;0.34;92.10
41040;BME280;48586;50.122;18.972;2023-02-26T01:23:51;97393.97;;;0.30;91.35
41040;BME280;48586;50.122;18.972;2023-02-26T01:25:59;97390.16;;;0.32;92.32
41040;BME280;48586;50.122;18.972;2023-02-26T01:28:13;97393.59;;;0.33;91.83
41040;BME280;48586;50.122;18.972;2023-02-26T01:30:20;97393.22;;;0.36;92.34
41040;BME280;48586;50.122;18.972;2023-02-26T01:32:34;97395.84;;;0.42;91.93
41040;BME280;48586;50.122;18.972;2023-02-26T01:34:53;97390.03;;;0.47;91.27
41040;BME280;48586;50.122;18.972;2023-02-26T01:37:15;97396.50;;;0.51;91.50
41040;BME280;48586;50.122;18.972;2023-02-26T01:39:35;97398.94;;;0.53;90.51
41040;BME280;48586;50.122;18.972;2023-02-26T01:41:49;97402.53;;;0.45;89.73
41040;BME280;48586;50.122;18.972;2023-02-26T01:44:12;97413.00;;;0.45;89.90
41040;BME280;48586;50.122;18.972;2023-02-26T01:46:32;97410.16;;;0.40;89.92
41040;BME280;48586;50.122;18.972;2023-02-26T01:48:48;97414.56;;;0.39;90.51
41040;BME280;48586;50.122;18.972;2023-02-26T01:50:55;97419.41;;;0.36;90.82
41040;BME280;48586;50.122;18.972;2023-02-26T01:53:20;97419.41;;;0.36;90.58
41040;BME280;48586;50.122;18.972;2023-02-26T01:55:27;97425.88;;;0.40;90.97
41040;BME280;48586;50.122;18.972;2023-02-26T01:57:34;97418.78;;;0.34;90.65
41040;BME280;48586;50.122;18.972;2023-02-26T01:59:45;97428.50;;;0.40;91.14
41040;BME280;48586;50.122;18.972;2023-02-26T02:01:55;97430.72;;;0.43;90.59
41040;BME280;48586;50.122;18.972;2023-02-26T02:04:05;97441.19;;;0.43;90.17
41040;BME280;48586;50.122;18.972;2023-02-26T02:06:19;97448.84;;;0.38;90.28
41040;BME280;48586;50.122;18.972;2023-02-26T02:08:28;97448.84;;;0.38;91.18
41040;BME280;48586;50.122;18.972;2023-02-26T02:10:40;97457.31;;;0.40;90.73
41040;BME280;48586;50.122;18.972;2023-02-26T02:12:57;97462.56;;;0.40;90.31
41040;BME280;48586;50.122;18.972;2023-02-26T02:15:15;97460.53;;;0.35;90.34
41040;BME280;48586;50.122;18.972;2023-02-26T02:17:43;97459.28;;;0.31;90.30
41040;BME280;48586;50.122;18.972;2023-02-26T02:20:10;97474.16;;;0.31;90.57
41040;BME280;48586;50.122;18.972;2023-02-26T02:22:43;97478.03;;;0.35;90.59
41040;BME280;48586;50.122;18.972;2023-02-26T02:25:19;97473.41;;;0.37;90.39
41040;BME280;48586;50.122;18.972;2023-02-26T02:27:53;97483.69;;;0.38;90.73
41040;BME280;48586;50.122;18.972;2023-02-26T02:30:27;97485.34;;;0.46;90.15
41040;BME280;48586;50.122;18.972;2023-02-26T02:32:49;97494.06;;;0.53;89.42
41040;BME280;48586;50.122;18.972;2023-02-26T02:35:09;97497.31;;;0.55;88.76
41040;BME280;48586;50.122;18.972;2023-02-26T02:37:25;97492.50;;;0.59;88.55
41040;BME280;48586;50.122;18.972;2023-02-26T02:39:39;97500.16;;;0.60;87.62
41040;BME280;48586;50.122;18.972;2023-02-26T02:41:53;97499.34;;;0.60;87.49
41040;BME280;48586;50.122;18.972;2023-02-26T02:44:07;97490.91;;;0.64;87.46
41040;BME280;48586;50.122;18.972;2023-02-26T02:46:23;97492.13;;;0.68;87.55
41040;BME280;48586;50.122;18.972;2023-02-26T02:48:40;97487.94;;;0.74;87.75
41040;BME280;48586;50.122;18.972;2023-02-26T02:50:56;97488.34;;;0.78;87.06
41040;BME280;48586;50.122;18.972;2023-02-26T02:53:10;97490.16;;;0.77;86.79
41040;BME280;48586;50.122;18.972;2023-02-26T02:55:27;97491.78;;;0.78;87.28
41040;BME280;48586;50.122;18.972;2023-02-26T02:57:42;97484.50;;;0.73;86.10
41040;BME280;48586;50.122;18.972;2023-02-26T02:59:58;97491.97;;;0.77;86.38
41040;BME280;48586;50.122;18.972;2023-02-26T03:02:12;97495.59;;;0.76;86.37
41040;BME280;48586;50.122;18.972;2023-02-26T03:04:28;97497.84;;;0.79;87.05
41040;BME280;48586;50.122;18.972;2023-02-26T03:06:34;97498.06;;;0.84;87.42
41040;BME280;48586;50.122;18.972;2023-02-26T03:08:40;97501.91;;;0.88;86.73
41040;BME280;48586;50.122;18.972;2023-02-26T03:10:51;97505.38;;;0.95;86.29
41040;BME280;48586;50.122;18.972;2023-02-26T03:12:57;97510.44;;;1.03;86.00
41040;BME280;48586;50.122;18.972;2023-02-26T03:15:04;97510.06;;;1.06;85.41
41040;BME280;48586;50.122;18.972;2023-02-26T03:17:20;97511.69;;;1.07;84.69
41040;BME280;48586;50.122;18.972;2023-02-26T03:19:40;97522.81;;;1.09;82.99
41040;BME280;48586;50.122;18.972;2023-02-26T03:22:02;97522.81;;;1.09;81.90
41040;BME280;48586;50.122;18.972;2023-02-26T03:24:48;97528.03;;;1.09;81.23
41040;BME280;48586;50.122;18.972;2023-02-26T03:27:09;97547.63;;;1.13;81.49
41040;BME280;48586;50.122;18.972;2023-02-26T03:29:36;97553.84;;;1.12;81.17
41040;BME280;48586;50.122;18.972;2023-02-26T03:31:55;97554.06;;;1.11;80.68
41040;BME280;48586;50.122;18.972;2023-02-26T03:34:11;97563.97;;;1.09;80.61
41040;BME280;48586;50.122;18.972;2023-02-26T03:36:28;97569.38;;;1.07;80.97
41040;BME280;48586;50.122;18.972;2023-02-26T03:39:00;97573.22;;;1.05;81.09
41040;BME280;48586;50.122;18.972;2023-02-26T03:41:13;97577.44;;;1.06;80.05
41040;BME280;48586;50.122;18.972;2023-02-26T03:43:29;97573.78;;;1.00;79.00
41040;BME280;48586;50.122;18.972;2023-02-26T03:45:47;97574.56;;;0.94;79.63
41040;BME280;48586;50.122;18.972;2023-02-26T03:47:58;97583.84;;;0.96;80.22
41040;BME280;48586;50.122;18.972;2023-02-26T03:50:11;97587.88;;;0.92;78.84
41040;BME280;48586;50.122;18.972;2023-02-26T03:52:50;97595.69;;;0.86;78.67
41040;BME280;48586;50.122;18.972;2023-02-26T03:55:21;97599.09;;;0.86;78.70
41040;BME280;48586;50.122;18.972;2023-02-26T03:57:41;97594.66;;;0.87;79.44
41040;BME280;48586;50.122;18.972;2023-02-26T04:00:04;97610.41;;;0.87;78.37
41040;BME280;48586;50.122;18.972;2023-02-26T04:02:22;97604.78;;;0.90;79.15
41040;BME280;48586;50.122;18.972;2023-02-26T04:04:43;97605.22;;;0.93;79.77
41040;BME280;48586;50.122;18.972;2023-02-26T04:06:54;97607.25;;;0.98;78.61
41040;BME280;48586;50.122;18.972;2023-02-26T04:09:04;97605.63;;;0.97;79.09
41040;BME280;48586;50.122;18.972;2023-02-26T04:11:15;97621.38;;;0.97;79.04
41040;BME280;48586;50.122;18.972;2023-02-26T04:13:25;97623.00;;;0.98;77.45
41040;BME280;48586;50.122;18.972;2023-02-26T04:15:31;97630.84;;;0.98;77.16
41040;BME280;48586;50.122;18.972;2023-02-26T04:17:36;97624.16;;;0.95;76.33
41040;BME280;48586;50.122;18.972;2023-02-26T04:19:42;97632.25;;;0.94;77.18
41040;BME280;48586;50.122;18.972;2023-02-26T04:21:48;97634.44;;;0.90;77.00
41040;BME280;48586;50.122;18.972;2023-02-26T04:23:54;97641.50;;;0.90;77.44
41040;BME280;48586;50.122;18.972;2023-02-26T04:26:03;97641.06;;;0.86;77.41
41040;BME280;48586;50.122;18.972;2023-02-26T04:28:10;97643.50;;;0.88;78.21
41040;BME280;48586;50.122;18.972;2023-02-26T04:30:16;97641.06;;;0.86;77.95
41040;BME280;48586;50.122;18.972;2023-02-26T04:32:22;97646.72;;;0.90;78.00
41040;BME280;48586;50.122;18.972;2023-02-26T04:34:27;97651.38;;;0.88;77.10
41040;BME280;48586;50.122;18.972;2023-02-26T04:36:33;97657.00;;;0.85;77.42
41040;BME280;48586;50.122;18.972;2023-02-26T04:38:38;97660.78;;;0.82;76.06
41040;BME280;48586;50.122;18.972;2023-02-26T04:40:44;97665.22;;;0.82;76.55
41040;BME280;48586;50.122;18.972;2023-02-26T04:42:52;97659.97;;;0.82;76.62
41040;BME280;48586;50.122;18.972;2023-02-26T04:45:01;97668.47;;;0.84;76.88
41040;BME280;48586;50.122;18.972;2023-02-26T04:47:08;97668.66;;;0.82;75.63
41040;BME280;48586;50.122;18.972;2023-02-26T04:49:12;97676.50;;;0.82;75.27
41040;BME280;48586;50.122;18.972;2023-02-26T04:51:19;97669.84;;;0.80;73.72
41040;BME280;48586;50.122;18.972;2023-02-26T04:53:25;97672.84;;;0.77;73.67
41040;BME280;48586;50.122;18.972;2023-02-26T04:55:30;97677.66;;;0.73;73.34
41040;BME280;48586;50.122;18.972;2023-02-26T04:57:35;97674.59;;;0.69;73.89
41040;BME280;48586;50.122;18.972;2023-02-26T04:59:42;97682.47;;;0.69;73.80
41040;BME280;48586;50.122;18.972;2023-02-26T05:01:47;97690.09;;;0.64;73.86
41040;BME280;48586;50.122;18.972;2023-02-26T05:03:51;97692.28;;;0.61;73.74
41040;BME280;48586;50.122;18.972;2023-02-26T05:05:56;97693.41;;;0.52;73.52
41040;BME280;48586;50.122;18.972;2023-02-26T05:08:00;97689.53;;;0.47;73.67
41040;BME280;48586;50.122;18.972;2023-02-26T05:10:06;97695.16;;;0.44;74.44
41040;BME280;48586;50.122;18.972;2023-02-26T05:12:11;97701.78;;;0.40;73.98
41040;BME280;48586;50.122;18.972;2023-02-26T05:14:16;97703.94;;;0.37;74.33
41040;BME280;48586;50.122;18.972;2023-02-26T05:16:26;97711.38;;;0.33;73.93
41040;BME280;48586;50.122;18.972;2023-02-26T05:18:31;97710.75;;;0.31;74.76
41040;BME280;48586;50.122;18.972;2023-02-26T05:20:36;97712.53;;;0.31;74.53
41040;BME280;48586;50.122;18.972;2023-02-26T05:22:41;97708.88;;;0.25;74.85
41040;BME280;48586;50.122;18.972;2023-02-26T05:24:46;97711.31;;;0.27;75.23
41040;BME280;48586;50.122;18.972;2023-02-26T05:26:50;97714.75;;;0.27;74.96
41040;BME280;48586;50.122;18.972;2023-02-26T05:28:55;97715.72;;;0.26;74.41
41040;BME280;48586;50.122;18.972;2023-02-26T05:30:59;97721.16;;;0.25;74.92
41040;BME280;48586;50.122;18.972;2023-02-26T05:33:06;97732.00;;;0.21;74.90
41040;BME280;48586;50.122;18.972;2023-02-26T05:35:11;97738.22;;;0.20;75.84
41040;BME280;48586;50.122;18.972;2023-02-26T05:37:16;97739.59;;;0.16;75.41
41040;BME280;48586;50.122;18.972;2023-02-26T05:39:20;97744.03;;;0.16;74.82
41040;BME280;48586;50.122;18.972;2023-02-26T05:41:25;97756.13;;;0.17;75.12
41040;BME280;48586;50.122;18.972;2023-02-26T05:43:29;97757.75;;;0.18;75.40
41040;BME280;48586;50.122;18.972;2023-02-26T05:45:33;97771.47;;;0.20;75.22
41040;BME280;48586;50.122;18.972;2023-02-26T05:47:38;97775.91;;;0.19;74.63
41040;BME280;48586;50.122;18.972;2023-02-26T05:49:44;97780.50;;;0.17;75.43
41040;BME280;48586;50.122;18.972;2023-02-26T05:51:48;97794.22;;;0.19;75.23
41040;BME280;48586;50.122;18.972;2023-02-26T05:53:53;97788.63;;;0.23;75.52
41040;BME280;48586;50.122;18.972;2023-02-26T05:55:58;97786.63;;;0.25;75.00
41040;BME280;48586;50.122;18.972;2023-02-26T05:58:02;97800.19;;;0.28;74.71
41040;BME280;48586;50.122;18.972;2023-02-26T06:00:09;97806.78;;;0.24;74.66
41040;BME280;48586;50.122;18.972;2023-02-26T06:02:15;97804.72;;;0.19;74.56
41040;BME280;48586;50.122;18.972;2023-02-26T06:04:19;97803.25;;;0.17;75.21
41040;BME280;48586;50.122;18.972;2023-02-26T06:06:26;97815.00;;;0.21;75.45
41040;BME280;48586;50.122;18.972;2023-02-26T06:08:31;97824.31;;;0.24;75.66
41040;BME280;48586;50.122;18.972;2023-02-26T06:10:34;97823.94;;;0.27;74.73
41040;BME280;48586;50.122;18.972;2023-02-26T06:12:39;97824.91;;;0.26;74.77
41040;BME280;48586;50.122;18.972;2023-02-26T06:14:44;97835.13;;;0.20;74.40
41040;BME280;48586;50.122;18.972;2023-02-26T06:16:48;97836.13;;;0.19;74.97
41040;BME280;48586;50.122;18.972;2023-02-26T06:18:52;97839.38;;;0.21;75.40
41040;BME280;48586;50.122;18.972;2023-02-26T06:20:56;97841.84;;;0.23;75.18
41040;BME280;48586;50.122;18.972;2023-02-26T06:23:03;97842.00;;;0.21;75.86
41040;BME280;48586;50.122;18.972;2023-02-26T06:25:09;97849.69;;;0.23;74.95
41040;BME280;48586;50.122;18.972;2023-02-26T06:27:14;97852.47;;;0.21;75.24
41040;BME280;48586;50.122;18.972;2023-02-26T06:29:19;97854.94;;;0.23;75.80
41040;BME280;48586;50.122;18.972;2023-02-26T06:31:24;97860.63;;;0.27;76.34
41040;BME280;48586;50.122;18.972;2023-02-26T06:33:28;97856.63;;;0.31;75.82
41040;BME280;48586;50.122;18.972;2023-02-26T06:35:32;97861.50;;;0.34;75.36
41040;BME280;48586;50.122;18.972;2023-02-26T06:37:37;97868.34;;;0.35;75.60
41040;BME280;48586;50.122;18.972;2023-02-26T06:39:43;97874.06;;;0.38;75.74
41040;BME280;48586;50.122;18.972;2023-02-26T06:41:48;97873.50;;;0.43;75.75
41040;BME280;48586;50.122;18.972;2023-02-26T06:43:54;97874.16;;;0.45;75.59
41040;BME280;48586;50.122;18.972;2023-02-26T06:45:59;97871.28;;;0.40;75.94
41040;BME280;48586;50.122;18.972;2023-02-26T06:48:03;97870.97;;;0.35;76.46
41040;BME280;48586;50.122;18.972;2023-02-26T06:50:09;97871.97;;;0.34;77.35
41040;BME280;48586;50.122;18.972;2023-02-26T06:52:14;97872.44;;;0.37;77.31
41040;BME280;48586;50.122;18.972;2023-02-26T06:54:18;97863.03;;;0.43;77.21
41040;BME280;48586;50.122;18.972;2023-02-26T06:56:26;97867.00;;;0.54;77.64
41040;BME280;48586;50.122;18.972;2023-02-26T06:58:30;97868.25;;;0.58;76.92
41040;BME280;48586;50.122;18.972;2023-02-26T07:00:34;97868.06;;;0.59;76.84
41040;BME280;48586;50.122;18.972;2023-02-26T07:02:39;97870.94;;;0.64;76.84
41040;BME280;48586;50.122;18.972;2023-02-26T07:04:43;97882.06;;;0.66;77.17
41040;BME280;48586;50.122;18.972;2023-02-26T07:06:47;97878.91;;;0.71;76.74
41040;BME280;48586;50.122;18.972;2023-02-26T07:08:52;97885.84;;;0.79;76.86
41040;BME280;48586;50.122;18.972;2023-02-26T07:10:56;97888.31;;;0.87;77.58
41040;BME280;48586;50.122;18.972;2023-02-26T07:13:03;97891.84;;;0.94;76.06
41040;BME280;48586;50.122;18.972;2023-02-26T07:15:09;97891.13;;;1.00;75.51
41040;BME280;48586;50.122;18.972;2023-02-26T07:17:13;97901.41;;;1.02;75.81
41040;BME280;48586;50.122;18.972;2023-02-26T07:19:20;97897.59;;;1.04;75.71
41040;BME280;48586;50.122;18.972;2023-02-26T07:21:25;97901.06;;;1.05;75.53
41040;BME280;48586;50.122;18.972;2023-02-26T07:23:30;97901.59;;;1.00;75.28
41040;BME280;48586;50.122;18.972;2023-02-26T07:25:33;97905.22;;;0.99;75.63
41040;BME280;48586;50.122;18.972;2023-02-26T07:27:38;97898.53;;;0.96;75.65
41040;BME280;48586;50.122;18.972;2023-02-26T07:29:45;97906.56;;;0.95;75.71
41040;BME280;48586;50.122;18.972;2023-02-26T07:31:49;97909.75;;;0.90;75.73
41040;BME280;48586;50.122;18.972;2023-02-26T07:33:54;97907.31;;;0.89;75.91
41040;BME280;48586;50.122;18.972;2023-02-26T07:35:58;97921.34;;;0.96;76.85
41040;BME280;48586;50.122;18.972;2023-02-26T07:38:02;97918.41;;;1.06;76.16
41040;BME280;48586;50.122;18.972;2023-02-26T07:40:10;97931.22;;;1.15;76.15
41040;BME280;48586;50.122;18.972;2023-02-26T07:42:17;97934.53;;;1.24;75.62
41040;BME280;48586;50.122;18.972;2023-02-26T07:44:21;97938.84;;;1.32;75.23
41040;BME280;48586;50.122;18.972;2023-02-26T07:46:28;97932.84;;;1.38;75.68
41040;BME280;48586;50.122;18.972;2023-02-26T07:48:33;97928.94;;;1.48;75.66
41040;BME280;48586;50.122;18.972;2023-02-26T07:50:37;97929.78;;;1.56;74.52
41040;BME280;48586;50.122;18.972;2023-02-26T07:52:43;97932.03;;;1.59;74.30
41040;BME280;48586;50.122;18.972;2023-02-26T07:54:47;97934.47;;;1.60;74.12
41040;BME280;48586;50.122;18.972;2023-02-26T07:56:51;97937.94;;;1.61;73.67
41040;BME280;48586;50.122;18.972;2023-02-26T07:58:56;97943.09;;;1.54;73.90
41040;BME280;48586;50.122;18.972;2023-02-26T08:01:00;97941.03;;;1.50;73.77
41040;BME280;48586;50.122;18.972;2023-02-26T08:03:06;97948.31;;;1.47;74.06
41040;BME280;48586;50.122;18.972;2023-02-26T08:05:11;97949.84;;;1.42;73.79
41040;BME280;48586;50.122;18.972;2023-02-26T08:07:15;97949.09;;;1.27;74.58
41040;BME280;48586;50.122;18.972;2023-02-26T08:09:19;97953.81;;;1.16;75.60
41040;BME280;48586;50.122;18.972;2023-02-26T08:11:24;97960.47;;;0.97;75.52
41040;BME280;48586;50.122;18.972;2023-02-26T08:13:28;97955.34;;;0.89;77.56
41040;BME280;48586;50.122;18.972;2023-02-26T08:15:33;97957.75;;;0.91;77.45
41040;BME280;48586;50.122;18.972;2023-02-26T08:17:38;97961.47;;;0.96;77.57
41040;BME280;48586;50.122;18.972;2023-02-26T08:19:45;97970.06;;;1.05;77.23
41040;BME280;48586;50.122;18.972;2023-02-26T08:21:51;97966.06;;;1.09;76.22
41040;BME280;48586;50.122;18.972;2023-02-26T08:23:57;97966.50;;;1.13;75.94
41040;BME280;48586;50.122;18.972;2023-02-26T08:26:04;97978.25;;;1.17;76.53
41040;BME280;48586;50.122;18.972;2023-02-26T08:28:16;97965.56;;;1.20;76.21
41040;BME280;48586;50.122;18.972;2023-02-26T08:30:21;97968.34;;;1.34;76.13
41040;BME280;48586;50.122;18.972;2023-02-26T08:32:26;97962.59;;;1.45;75.81
41040;BME280;48586;50.122;18.972;2023-02-26T08:34:31;97964.47;;;1.51;73.55
41040;BME280;48586;50.122;18.972;2023-02-26T08:36:40;97974.47;;;1.62;75.08
41040;BME280;48586;50.122;18.972;2023-02-26T08:38:45;97973.84;;;1.82;74.92
41040;BME280;48586;50.122;18.972;2023-02-26T08:40:50;97979.69;;;2.05;73.03
41040;BME280;48586;50.122;18.972;2023-02-26T08:42:55;97986.69;;;2.19;72.27
41040;BME280;48586;50.122;18.972;2023-02-26T08:45:00;97980.47;;;2.27;70.35
41040;BME280;48586;50.122;18.972;2023-02-26T08:47:04;97992.94;;;2.18;70.32
41040;BME280;48586;50.122;18.972;2023-02-26T08:49:10;97995.22;;;2.00;70.15
41040;BME280;48586;50.122;18.972;2023-02-26T08:51:16;97999.25;;;1.75;69.85
41040;BME280;48586;50.122;18.972;2023-02-26T08:53:24;98002.88;;;1.52;72.19
41040;BME280;48586;50.122;18.972;2023-02-26T08:55:30;98011.97;;;1.35;73.26
41040;BME280;48586;50.122;18.972;2023-02-26T08:57:34;98018.22;;;1.19;73.88
41040;BME280;48586;50.122;18.972;2023-02-26T08:59:38;98012.28;;;1.10;74.40
41040;BME280;48586;50.122;18.972;2023-02-26T09:01:44;98019.88;;;1.05;72.96
41040;BME280;48586;50.122;18.972;2023-02-26T09:03:49;98024.88;;;1.00;73.82
41040;BME280;48586;50.122;18.972;2023-02-26T09:05:54;98026.03;;;0.97;74.05
41040;BME280;48586;50.122;18.972;2023-02-26T09:07:59;98028.47;;;0.99;74.92
41040;BME280;48586;50.122;18.972;2023-02-26T09:10:07;98026.94;;;1.05;76.23
41040;BME280;48586;50.122;18.972;2023-02-26T09:12:13;98028.28;;;1.15;75.56
41040;BME280;48586;50.122;18.972;2023-02-26T09:14:18;98033.69;;;1.29;78.04
41040;BME280;48586;50.122;18.972;2023-02-26T09:16:24;98032.72;;;1.51;77.85
41040;BME280;48586;50.122;18.972;2023-02-26T09:18:30;98027.88;;;1.69;76.88
41040;BME280;48586;50.122;18.972;2023-02-26T09:20:35;98025.00;;;1.86;76.83
41040;BME280;48586;50.122;18.972;2023-02-26T09:22:40;98036.50;;;2.06;77.23
41040;BME280;48586;50.122;18.972;2023-02-26T09:24:44;98036.66;;;2.26;76.38
41040;BME280;48586;50.122;18.972;2023-02-26T09:26:52;98042.88;;;2.46;76.10
41040;BME280;48586;50.122;18.972;2023-02-26T09:28:59;98039.53;;;2.59;71.20
41040;BME280;48586;50.122;18.972;2023-02-26T09:31:03;98047.91;;;2.69;70.13
41040;BME280;48586;50.122;18.972;2023-02-26T09:33:10;98043.09;;;2.80;71.11
41040;BME280;48586;50.122;18.972;2023-02-26T09:35:16;98050.03;;;2.87;68.96
41040;BME280;48586;50.122;18.972;2023-02-26T09:37:21;98050.22;;;2.86;66.89
41040;BME280;48586;50.122;18.972;2023-02-26T09:39:27;98055.50;;;2.86;67.07
41040;BME280;48586;50.122;18.972;2023-02-26T09:41:35;98046.38;;;2.88;67.25
41040;BME280;48586;50.122;18.972;2023-02-26T09:44:03;98058.16;;;2.92;67.37
41040;BME280;48586;50.122;18.972;2023-02-26T09:46:30;98054.06;;;2.90;65.69
41040;BME280;48586;50.122;18.972;2023-02-26T09:48:43;98054.91;;;2.90;66.63
41040;BME280;48586;50.122;18.972;2023-02-26T09:50:53;98064.22;;;2.93;66.97
41040;BME280;48586;50.122;18.972;2023-02-26T09:53:10;98061.44;;;3.01;67.01
41040;BME280;48586;50.122;18.972;2023-02-26T09:55:27;98062.28;;;3.08;65.76
41040;BME280;48586;50.122;18.972;2023-02-26T09:57:42;98066.41;;;3.17;64.87
41040;BME280;48586;50.122;18.972;2023-02-26T09:59:53;98072.34;;;3.33;65.26
41040;BME280;48586;50.122;18.972;2023-02-26T10:02:06;98072.81;;;3.43;64.55
41040;BME280;48586;50.122;18.972;2023-02-26T10:04:39;98078.28;;;3.55;63.24
41040;BME280;48586;50.122;18.972;2023-02-26T10:07:06;98072.06;;;3.62;61.32
41040;BME280;48586;50.122;18.972;2023-02-26T10:09:30;98077.13;;;3.64;56.11
41040;BME280;48586;50.122;18.972;2023-02-26T10:11:55;98087.69;;;3.70;59.18
41040;BME280;48586;50.122;18.972;2023-02-26T10:14:12;98089.75;;;3.82;59.56
41040;BME280;48586;50.122;18.972;2023-02-26T10:16:28;98097.44;;;3.83;56.81
41040;BME280;48586;50.122;18.972;2023-02-26T10:18:43;98094.00;;;3.83;57.82
41040;BME280;48586;50.122;18.972;2023-02-26T10:20:56;98110.41;;;3.85;58.70
41040;BME280;48586;50.122;18.972;2023-02-26T10:23:15;98111.47;;;3.90;59.44
41040;BME280;48586;50.122;18.972;2023-02-26T10:25:33;98111.69;;;3.95;57.73
41040;BME280;48586;50.122;18.972;2023-02-26T10:27:54;98114.13;;;4.04;58.31
41040;BME280;48586;50.122;18.972;2023-02-26T10:30:12;98108.69;;;4.12;57.26
41040;BME280;48586;50.122;18.972;2023-02-26T10:32:35;98110.50;;;4.18;56.12
41040;BME280;48586;50.122;18.972;2023-02-26T10:34:50;98125.13;;;4.20;57.97
41040;BME280;48586;50.122;18.972;2023-02-26T10:37:03;98137.47;;;4.13;55.34
41040;BME280;48586;50.122;18.972;2023-02-26T10:39:26;98139.69;;;4.03;56.49
41040;BME280;48586;50.122;18.972;2023-02-26T10:41:36;98143.09;;;3.90;55.52
41040;BME280;48586;50.122;18.972;2023-02-26T10:43:47;98146.88;;;3.74;57.53
41040;BME280;48586;50.122;18.972;2023-02-26T10:46:13;98152.28;;;3.60;58.83
41040;BME280;48586;50.122;18.972;2023-02-26T10:48:41;98157.00;;;3.36;58.41
41040;BME280;48586;50.122;18.972;2023-02-26T10:51:11;98149.72;;;3.04;61.56
41040;BME280;48586;50.122;18.972;2023-02-26T10:53:18;98151.94;;;2.79;63.36
41040;BME280;48586;50.122;18.972;2023-02-26T10:55:40;98148.09;;;2.53;64.72
41040;BME280;48586;50.122;18.972;2023-02-26T10:57:54;98157.03;;;2.37;66.46
41040;BME280;48586;50.122;18.972;2023-02-26T11:00:05;98157.72;;;2.24;66.68
41040;BME280;48586;50.122;18.972;2023-02-26T11:02:33;98159.84;;;2.14;67.15
41040;BME280;48586;50.122;18.972;2023-02-26T11:04:43;98162.84;;;2.11;67.64
41040;BME280;48586;50.122;18.972;2023-02-26T11:06:52;98161.31;;;2.17;68.62
41040;BME280;48586;50.122;18.972;2023-02-26T11:09:01;98162.25;;;2.31;69.12
41040;BME280;48586;50.122;18.972;2023-02-26T11:11:09;98159.22;;;2.55;71.54
41040;BME280;48586;50.122;18.972;2023-02-26T11:13:14;98169.59;;;2.85;67.72
41040;BME280;48586;50.122;18.972;2023-02-26T11:15:25;98165.53;;;3.10;66.71
41040;BME280;48586;50.122;18.972;2023-02-26T11:17:31;98173.78;;;3.29;63.80
41040;BME280;48586;50.122;18.972;2023-02-26T11:19:39;98177.50;;;3.41;64.11
41040;BME280;48586;50.122;18.972;2023-02-26T11:21:54;98179.81;;;3.51;63.89
41040;BME280;48586;50.122;18.972;2023-02-26T11:24:04;98179.38;;;3.54;60.68
41040;BME280;48586;50.122;18.972;2023-02-26T11:26:16;98184.00;;;3.45;60.43
41040;BME280;48586;50.122;18.972;2023-02-26T11:28:30;98183.50;;;3.28;59.77
41040;BME280;48586;50.122;18.972;2023-02-26T11:30:38;98181.59;;;3.15;60.62